首页
METAR-TAF:

METAR-TAF

机场 :

阿雅克肖, 法国

纬度: 41-55N, 经度: 008-48E, 海拔: 6米

当前天气观测

该预报发布于16分钟前的12:00 UTC
风速11节,风向西北
温度 13°C
湿度 58%
气压 1016 hPa
能见度10公里或以上
小雨

METAR: LFKJ 271200Z AUTO 32011KT 9999 -RA SCT047/// OVC056/// ///TCU 13/05 Q1016 TEMPO SHRA

时间: 13:16 (12:16 UTC)

预报

该预报发布于4小时和16分钟前的08:00 UTC
预报有效从27日的 09点(UTC)到 28日的 09点(UTC)
风速6节,风向东转东北
能见度10公里或以上
成为
从 27日的 09点(UTC)到 27日的 12点(UTC)
风速10节,风向西
多云层高于2500英尺
短暂存在
从 27日的 12点(UTC)到 27日的 18点(UTC)
散云层高于2000英尺, 塔状积云.
多云层高于2500英尺
阵雨
成为
从 27日的 20点(UTC)到 27日的 21点(UTC)
风速15节,风向西,有时为25节阵风
成为
从 28日的 00点(UTC)到 28日的 03点(UTC)
风速10节,风向北转西北

TAF: LFKJ 270800Z 2709/2809 06006KT 9999 NSC BECMG 2709/2712 27010KT BKN025 TEMPO 2712/2718 SHRA SCT020TCU BKN025 BECMG 2720/2721 27015G25KT BECMG 2800/2803 34010KT

超过4000个机场的气象观测和天气预报(METAR&TAF报告)。

可查询的气象台以黄色和红色小点在地图上表示。

将鼠标移到小点上方,可查看气象台名称。

然后点击查看天气观测和预报。

如需切换地图:点击带黑十字的绿色按钮放大地图;点击带横线的绿色按钮缩小地图;或者点击绿色箭头查看邻近地区的地图。


METAR-TAF: